createdAt,value
2023-01-05T00:00:04.536Z,100222.44
2023-01-05T00:02:38.978Z,100232.47
2023-01-05T00:05:08.314Z,100233.88
2023-01-05T00:07:34.633Z,100239.63
2023-01-05T00:10:04.186Z,100238.13
2023-01-05T00:12:49.344Z,100235.25
2023-01-05T00:15:34.396Z,100243.88
2023-01-05T00:18:19.336Z,100248.88
2023-01-05T00:21:04.247Z,100251.03
2023-01-05T00:23:30.581Z,100238.06
2023-01-05T00:25:56.898Z,100253.16
2023-01-05T00:28:23.214Z,100252.41
2023-01-05T00:30:49.531Z,100242.34
2023-01-05T00:33:16.277Z,100239.47
2023-01-05T00:35:42.633Z,100250.22
2023-01-05T00:38:08.967Z,100250.22
2023-01-05T00:40:37.705Z,100249.47
2023-01-05T00:43:04.085Z,100245.13
2023-01-05T00:45:30.512Z,100248.00
2023-01-05T00:47:59.562Z,100235.78
2023-01-05T00:50:26.074Z,100240.75
2023-01-05T00:52:52.410Z,100246.50
2023-01-05T00:55:18.802Z,100235.78
2023-01-05T00:57:46.235Z,100239.28
2023-01-05T01:00:14.506Z,100239.28
2023-01-05T01:02:40.894Z,100233.56
2023-01-05T01:05:07.383Z,100237.88
2023-01-05T01:07:33.700Z,100240.03
2023-01-05T01:10:00.055Z,100239.28
2023-01-05T01:12:26.406Z,100238.56
2023-01-05T01:14:52.753Z,100245.03
2023-01-05T01:17:19.116Z,100242.16
2023-01-05T01:19:46.785Z,100249.28
2023-01-05T01:22:13.432Z,100255.03
2023-01-05T01:24:39.772Z,100249.28
2023-01-05T01:27:06.118Z,100253.66
2023-01-05T01:29:32.723Z,100257.91
2023-01-05T01:31:59.698Z,100252.84
2023-01-05T01:34:26.047Z,100257.19
2023-01-05T01:36:54.378Z,100246.38
2023-01-05T01:39:23.461Z,100257.84
2023-01-05T01:41:55.160Z,100246.38
2023-01-05T01:44:40.304Z,100255.00
2023-01-05T01:47:06.857Z,100249.88
2023-01-05T01:49:33.303Z,100262.13
2023-01-05T01:52:05.276Z,100262.13
2023-01-05T01:54:31.627Z,100252.03
2023-01-05T01:56:58.140Z,100249.88
2023-01-05T01:59:24.490Z,100259.88
2023-01-05T02:01:51.388Z,100250.53
2023-01-05T02:04:18.733Z,100241.94
2023-01-05T02:06:45.096Z,100251.94
2023-01-05T02:09:11.442Z,100250.53
2023-01-05T02:11:41.099Z,100246.22
2023-01-05T02:14:22.269Z,100238.97
2023-01-05T02:16:48.562Z,100234.63
2023-01-05T02:19:37.192Z,100228.88
2023-01-05T02:26:19.866Z,100237.50
2023-01-05T02:29:07.624Z,100242.50
2023-01-05T02:31:40.668Z,100236.00
2023-01-05T02:34:14.604Z,100233.13
2023-01-05T02:36:50.458Z,100235.25
2023-01-05T02:39:32.700Z,100236.00
2023-01-05T02:41:59.892Z,100230.25
2023-01-05T02:44:27.765Z,100240.28
2023-01-05T02:47:03.166Z,100241.69
2023-01-05T02:49:29.687Z,100235.16
2023-01-05T02:51:56.025Z,100240.19
2023-01-05T02:54:30.469Z,100236.56
2023-01-05T02:57:08.537Z,100238.72
2023-01-05T02:59:36.163Z,100239.38
2023-01-05T03:02:04.690Z,100240.09
2023-01-05T03:04:35.822Z,100247.34
2023-01-05T03:07:04.201Z,100240.09
2023-01-05T03:09:36.630Z,100233.63
2023-01-05T03:12:40.978Z,100232.91
2023-01-05T03:15:09.182Z,100238.63
2023-01-05T03:17:45.133Z,100247.25
2023-01-05T03:20:13.558Z,100232.91
2023-01-05T03:22:58.671Z,100231.41
2023-01-05T03:25:43.777Z,100237.16
2023-01-05T03:28:36.279Z,100238.56
2023-01-05T03:31:27.081Z,100245.03
2023-01-05T03:34:31.246Z,100237.16
2023-01-05T03:37:08.384Z,100241.44
2023-01-05T03:39:35.457Z,100245.69
2023-01-05T03:42:04.536Z,100247.91
2023-01-05T03:44:30.949Z,100237.91
2023-01-05T03:46:57.907Z,100235.09
2023-01-05T03:49:24.252Z,100239.44
2023-01-05T03:51:51.030Z,100245.94
2023-01-05T03:54:18.091Z,100248.81
2023-01-05T04:00:46.811Z,100250.47
2023-01-05T04:03:15.243Z,100250.34
2023-01-05T04:05:42.554Z,100262.03
2023-01-05T04:08:10.392Z,100265.63
2023-01-05T04:10:36.717Z,100257.84
2023-01-05T04:13:03.893Z,100265.00
2023-01-05T04:15:30.874Z,100275.09
2023-01-05T04:17:58.023Z,100270.81
2023-01-05T04:20:24.854Z,100269.41
2023-01-05T04:22:52.417Z,100270.91
2023-01-05T04:25:20.810Z,100267.28
2023-01-05T04:27:47.765Z,100280.16
2023-01-05T04:30:15.010Z,100287.31
2023-01-05T04:32:41.892Z,100291.66
2023-01-05T04:35:12.513Z,100293.06
2023-01-05T04:37:40.708Z,100292.38
2023-01-05T04:40:08.354Z,100300.28
2023-01-05T04:42:43.404Z,100289.50
2023-01-05T04:45:10.366Z,100291.00
2023-01-05T04:47:37.066Z,100301.09
2023-01-05T04:50:04.195Z,100308.31
2023-01-05T04:52:30.585Z,100309.78
2023-01-05T04:54:57.085Z,100304.81
2023-01-05T04:57:23.658Z,100301.25
2023-01-05T04:59:51.774Z,100309.88
2023-01-05T05:02:20.891Z,100315.63
2023-01-05T05:04:49.547Z,100315.63
2023-01-05T05:07:16.532Z,100316.34
2023-01-05T05:09:42.900Z,100314.88
2023-01-05T05:12:10.262Z,100317.03
2023-01-05T05:14:38.128Z,100314.16
2023-01-05T05:17:04.479Z,100310.47
2023-01-05T05:19:30.912Z,100325.41
2023-01-05T05:21:58.317Z,100321.13
2023-01-05T05:24:26.068Z,100315.31
2023-01-05T05:26:52.537Z,100325.66
2023-01-05T05:29:18.868Z,100327.84
2023-01-05T05:31:45.615Z,100324.31
2023-01-05T05:34:11.965Z,100319.31
2023-01-05T05:36:38.314Z,100320.06
2023-01-05T05:39:04.676Z,100319.31
2023-01-05T05:41:31.008Z,100316.44
2023-01-05T05:44:00.814Z,100317.19
2023-01-05T05:46:28.145Z,100317.19
2023-01-05T05:48:54.996Z,100312.84
2023-01-05T05:51:21.340Z,100312.84
2023-01-05T05:53:47.669Z,100325.81
2023-01-05T05:56:14.000Z,100338.78
2023-01-05T05:58:40.326Z,100334.56
2023-01-05T06:01:06.720Z,100339.50
2023-01-05T06:03:33.123Z,100341.13
2023-01-05T06:05:59.554Z,100346.88
2023-01-05T06:08:27.117Z,100342.38
2023-01-05T06:10:53.461Z,100347.28
2023-01-05T06:13:19.785Z,100356.13
2023-01-05T06:15:46.108Z,100354.31
2023-01-05T06:18:12.445Z,100355.03
2023-01-05T06:20:38.817Z,100375.16
2023-01-05T06:23:05.150Z,100371.72
2023-01-05T06:25:31.512Z,100369.59
2023-01-05T06:27:57.909Z,100377.56
2023-01-05T06:30:24.247Z,100374.03
2023-01-05T06:32:50.563Z,100377.72
2023-01-05T06:35:16.966Z,100372.69
2023-01-05T06:37:43.324Z,100381.50
2023-01-05T06:40:11.394Z,100380.22
2023-01-05T06:42:38.111Z,100376.22
2023-01-05T06:45:04.820Z,100389.72
2023-01-05T06:47:31.161Z,100394.31
2023-01-05T06:49:57.519Z,100392.44
2023-01-05T06:52:23.896Z,100404.41
2023-01-05T06:54:50.245Z,100397.97
2023-01-05T06:57:16.595Z,100394.50
2023-01-05T06:59:45.604Z,100427.38
2023-01-05T07:02:15.163Z,100419.13
2023-01-05T07:04:41.546Z,100414.25
2023-01-05T07:07:08.865Z,100418.31
2023-01-05T07:09:38.321Z,100413.81
2023-01-05T07:12:10.647Z,100429.69
2023-01-05T07:14:38.075Z,100417.97
2023-01-05T07:17:05.154Z,100422.16
2023-01-05T07:19:31.482Z,100426.66
2023-01-05T07:21:58.040Z,100429.94
2023-01-05T07:24:24.393Z,100432.81
2023-01-05T07:26:50.765Z,100438.56
2023-01-05T07:29:23.294Z,100446.47
2023-01-05T07:31:52.342Z,100437.56
2023-01-05T07:34:24.749Z,100445.97
2023-01-05T07:36:53.811Z,100455.25
2023-01-05T07:39:20.139Z,100449.66
2023-01-05T07:41:46.469Z,100461.75
2023-01-05T07:44:13.174Z,100470.91
2023-01-05T07:46:42.104Z,100472.63
2023-01-05T07:49:08.436Z,100483.91
2023-01-05T07:51:35.691Z,100486.28
2023-01-05T07:54:09.319Z,100478.75
2023-01-05T07:56:35.701Z,100488.41
2023-01-05T07:59:05.054Z,100488.03
2023-01-05T08:01:31.518Z,100490.03
2023-01-05T08:04:00.912Z,100488.56
2023-01-05T08:06:27.369Z,100502.88
2023-01-05T08:08:53.756Z,100503.00
2023-01-05T08:11:21.850Z,100510.59
2023-01-05T08:14:00.609Z,100512.22
2023-01-05T08:16:27.451Z,100507.38
2023-01-05T08:18:53.791Z,100514.66
2023-01-05T08:21:20.115Z,100516.34
2023-01-05T08:23:46.443Z,100518.97
2023-01-05T08:26:13.538Z,100536.06
2023-01-05T08:28:39.910Z,100528.25
2023-01-05T08:31:15.777Z,100531.38
2023-01-05T08:33:42.228Z,100526.69
2023-01-05T08:36:09.308Z,100535.06
2023-01-05T08:38:35.679Z,100534.78
2023-01-05T08:41:02.004Z,100542.63
2023-01-05T08:43:28.408Z,100543.84
2023-01-05T08:45:57.719Z,100554.72
2023-01-05T08:48:24.227Z,100554.78
2023-01-05T08:50:51.051Z,100554.16
2023-01-05T08:53:17.502Z,100563.75
2023-01-05T08:55:43.819Z,100567.91
2023-01-05T08:58:10.156Z,100562.34
2023-01-05T09:00:36.514Z,100571.78
2023-01-05T09:03:02.993Z,100572.53
2023-01-05T09:05:29.515Z,100581.25
2023-01-05T09:07:55.942Z,100582.00
2023-01-05T09:10:22.324Z,100587.00
2023-01-05T09:12:48.693Z,100575.50
2023-01-05T09:15:15.039Z,100584.13
2023-01-05T09:17:44.141Z,100595.63
2023-01-05T09:20:10.490Z,100593.41
2023-01-05T09:22:36.862Z,100597.78
2023-01-05T09:25:03.580Z,100605.75
2023-01-05T09:27:34.029Z,100610.34
2023-01-05T09:30:00.456Z,100596.41
2023-01-05T09:32:26.829Z,100616.25
2023-01-05T09:34:53.155Z,100619.69
2023-01-05T09:37:22.348Z,100618.06
2023-01-05T09:39:48.699Z,100617.97
2023-01-05T09:42:17.238Z,100635.97
2023-01-05T09:44:47.646Z,100641.56
2023-01-05T09:47:32.813Z,100647.56
2023-01-05T09:50:00.176Z,100650.53
2023-01-05T09:52:26.504Z,100660.88
2023-01-05T09:54:52.869Z,100660.31
2023-01-05T09:57:19.961Z,100656.22
2023-01-05T09:59:47.070Z,100659.91
2023-01-05T10:02:31.854Z,100662.88
2023-01-05T10:04:58.300Z,100668.72
2023-01-05T10:07:50.746Z,100669.53
2023-01-05T10:10:30.075Z,100677.44
2023-01-05T10:13:03.780Z,100686.88
2023-01-05T10:15:41.564Z,100674.69
2023-01-05T10:18:14.613Z,100679.72
2023-01-05T10:20:51.820Z,100689.78
2023-01-05T10:23:34.800Z,100693.63
2023-01-05T10:26:04.689Z,100695.16
2023-01-05T10:28:36.933Z,100693.69
2023-01-05T10:31:39.789Z,100692.28
2023-01-05T10:34:14.357Z,100699.88
2023-01-05T10:37:07.811Z,100714.53
2023-01-05T10:39:56.518Z,100712.88
2023-01-05T10:42:37.739Z,100731.78
2023-01-05T10:45:04.833Z,100713.19
2023-01-05T10:47:32.695Z,100716.50
2023-01-05T10:49:59.246Z,100720.94
2023-01-05T10:52:25.938Z,100723.16
2023-01-05T10:54:53.770Z,100725.22
2023-01-05T10:57:34.507Z,100732.53
2023-01-05T11:00:01.957Z,100737.72
2023-01-05T11:02:28.828Z,100736.72
2023-01-05T11:04:55.888Z,100745.78
2023-01-05T11:07:22.232Z,100741.00
2023-01-05T11:09:51.298Z,100747.91
2023-01-05T11:12:18.619Z,100757.78
2023-01-05T11:14:47.229Z,100753.78
2023-01-05T11:17:16.768Z,100755.59
2023-01-05T11:19:47.263Z,100761.19
2023-01-05T11:22:32.046Z,100762.38
2023-01-05T11:25:12.619Z,100757.19
2023-01-05T11:27:39.120Z,100759.66
2023-01-05T11:30:14.846Z,100761.00
2023-01-05T11:32:44.216Z,100765.53
2023-01-05T11:35:29.625Z,100766.38
2023-01-05T11:37:57.214Z,100772.78
2023-01-05T11:40:23.862Z,100765.84
2023-01-05T11:42:50.199Z,100759.59
2023-01-05T11:45:17.660Z,100787.16
2023-01-05T11:47:44.961Z,100791.69
2023-01-05T11:50:14.210Z,100790.47
2023-01-05T11:52:44.140Z,100792.03
2023-01-05T11:55:19.566Z,100796.25
2023-01-05T11:57:52.695Z,100803.38
2023-01-05T12:00:25.506Z,100793.44
2023-01-05T12:03:10.470Z,100798.81
2023-01-05T12:06:09.274Z,100797.97
2023-01-05T12:08:43.440Z,100811.16
2023-01-05T12:11:15.774Z,100821.28
2023-01-05T12:14:05.467Z,100831.34
2023-01-05T12:16:31.765Z,100837.75
2023-01-05T12:19:22.563Z,100837.19
2023-01-05T12:22:02.904Z,100841.72
2023-01-05T12:24:50.801Z,100828.84
2023-01-05T12:27:23.120Z,100850.03
2023-01-05T12:35:44.493Z,100867.06
2023-01-05T12:38:29.532Z,100855.78
2023-01-05T12:40:58.877Z,100857.25
2023-01-05T12:43:43.741Z,100859.00
2023-01-05T12:46:18.835Z,100878.25
2023-01-05T12:48:50.790Z,100868.78
2023-01-05T12:51:24.641Z,100874.63
2023-01-05T12:53:55.002Z,100876.38
2023-01-05T12:56:23.352Z,100867.81
2023-01-05T12:58:54.316Z,100888.06
2023-01-05T13:01:22.346Z,100880.56
2023-01-05T13:03:49.809Z,100892.19
2023-01-05T13:06:20.208Z,100892.75
2023-01-05T13:08:59.190Z,100892.91
2023-01-05T13:11:27.782Z,100898.59
2023-01-05T13:13:54.909Z,100901.66
2023-01-05T13:16:28.883Z,100914.47
2023-01-05T13:18:59.839Z,100915.44
2023-01-05T13:21:26.751Z,100911.00
2023-01-05T13:23:54.087Z,100921.47
2023-01-05T13:26:21.950Z,100921.66
2023-01-05T13:28:48.624Z,100928.25
2023-01-05T13:31:34.104Z,100943.28
2023-01-05T13:34:22.156Z,100939.75
2023-01-05T13:37:08.729Z,100943.78
2023-01-05T13:39:34.975Z,100964.28
2023-01-05T13:42:17.211Z,100960.56
2023-01-05T13:45:04.644Z,100965.78
2023-01-05T13:47:45.299Z,100970.13
2023-01-05T13:50:23.394Z,100977.84
2023-01-05T13:52:53.733Z,100990.97
2023-01-05T13:55:25.871Z,100991.19
2023-01-05T13:57:54.118Z,100995.72
2023-01-05T14:00:31.157Z,101003.34
2023-01-05T14:02:59.298Z,101006.13
2023-01-05T14:05:30.370Z,101010.47
2023-01-05T14:07:56.984Z,101017.66
2023-01-05T14:10:27.356Z,101017.53
2023-01-05T14:12:56.684Z,101016.06
2023-01-05T14:15:39.553Z,101029.06
2023-01-05T14:18:06.665Z,101031.94
2023-01-05T14:20:46.839Z,101031.94
2023-01-05T14:23:39.478Z,101037.69
2023-01-05T14:26:06.768Z,101041.00
2023-01-05T14:28:33.692Z,101049.06
2023-01-05T14:31:18.223Z,101053.34
2023-01-05T14:34:00.844Z,101058.72
2023-01-05T14:36:39.293Z,101070.06
2023-01-05T14:39:09.756Z,101078.44
2023-01-05T14:41:36.082Z,101078.44
2023-01-05T14:44:06.872Z,101079.53
2023-01-05T14:46:46.770Z,101085.47
2023-01-05T14:49:27.426Z,101088.47
2023-01-05T14:51:54.549Z,101098.50
2023-01-05T14:54:37.061Z,101108.81
2023-01-05T14:57:20.587Z,101106.66
2023-01-05T14:59:46.934Z,101105.94
2023-01-05T15:02:17.795Z,101128.59
2023-01-05T15:04:44.183Z,101137.34
2023-01-05T15:07:20.163Z,101139.59
2023-01-05T15:10:01.188Z,101147.09
2023-01-05T15:12:46.055Z,101153.16
2023-01-05T15:15:29.008Z,101164.50
2023-01-05T15:17:58.351Z,101167.09
2023-01-05T15:20:49.016Z,101173.06
2023-01-05T15:23:22.651Z,101181.97
2023-01-05T15:26:10.541Z,101184.28
2023-01-05T15:28:55.762Z,101190.78
2023-01-05T15:31:40.922Z,101190.91
2023-01-05T15:34:25.945Z,101206.31
2023-01-05T15:37:01.310Z,101209.31
2023-01-05T15:39:31.292Z,101210.03
2023-01-05T15:42:01.384Z,101207.06
2023-01-05T15:44:31.120Z,101226.47
2023-01-05T15:46:57.468Z,101236.06
2023-01-05T15:49:24.589Z,101232.19
2023-01-05T15:51:51.984Z,101229.56
2023-01-05T15:54:22.009Z,101246.66
2023-01-05T15:56:48.330Z,101262.31
2023-01-05T15:59:19.726Z,101263.16
2023-01-05T16:01:55.123Z,101253.25
2023-01-05T16:04:24.418Z,101259.75
2023-01-05T16:06:52.841Z,101256.00
2023-01-05T16:09:24.273Z,101265.00
2023-01-05T16:11:51.187Z,101270.13
2023-01-05T16:14:21.704Z,101276.09
2023-01-05T16:16:53.351Z,101275.53
2023-01-05T16:19:24.474Z,101278.53
2023-01-05T16:22:10.096Z,101285.59
2023-01-05T16:24:53.833Z,101288.09
2023-01-05T16:27:23.122Z,101290.56
2023-01-05T16:29:52.180Z,101296.50
2023-01-05T16:32:37.712Z,101305.19
2023-01-05T16:35:39.240Z,101308.09
2023-01-05T16:38:10.787Z,101307.09
2023-01-05T16:40:41.436Z,101320.63
2023-01-05T16:43:17.128Z,101308.41
2023-01-05T16:45:43.535Z,101309.34
2023-01-05T16:48:35.681Z,101316.78
2023-01-05T16:51:06.619Z,101311.78
2023-01-05T16:53:33.322Z,101314.75
2023-01-05T16:56:00.831Z,101321.84
2023-01-05T16:58:30.354Z,101321.09
2023-01-05T17:01:08.875Z,101326.84
2023-01-05T17:03:35.258Z,101324.38
2023-01-05T17:06:01.599Z,101331.22
2023-01-05T17:08:33.082Z,101322.66
2023-01-05T17:10:59.419Z,101321.38
2023-01-05T17:13:26.943Z,101334.09
2023-01-05T17:15:53.355Z,101341.91
2023-01-05T17:18:24.073Z,101343.34
2023-01-05T17:20:53.714Z,101350.59
2023-01-05T17:23:27.898Z,101348.91
2023-01-05T17:25:55.002Z,101343.34
2023-01-05T17:28:23.623Z,101345.66
2023-01-05T17:30:50.247Z,101348.75
2023-01-05T17:33:25.345Z,101364.13
2023-01-05T17:35:54.405Z,101357.16
2023-01-05T17:38:20.747Z,101359.75
2023-01-05T17:40:47.294Z,101360.44
2023-01-05T17:43:13.657Z,101358.19
2023-01-05T17:45:43.951Z,101367.03
2023-01-05T17:50:41.985Z,101376.31
2023-01-05T17:53:11.281Z,101381.50
2023-01-05T17:55:37.669Z,101376.53
2023-01-05T17:58:04.036Z,101393.94
2023-01-05T18:00:33.157Z,101389.75
2023-01-05T18:02:59.552Z,101392.94
2023-01-05T18:05:25.935Z,101399.09
2023-01-05T18:07:52.366Z,101400.03
2023-01-05T18:10:22.484Z,101408.78
2023-01-05T18:12:48.846Z,101412.50
2023-01-05T18:15:18.567Z,101409.13
2023-01-05T18:17:44.900Z,101414.06
2023-01-05T18:20:12.556Z,101414.63
2023-01-05T18:22:38.927Z,101417.56
2023-01-05T18:27:35.428Z,101423.56
2023-01-05T18:30:04.952Z,101427.22
2023-01-05T18:35:09.817Z,101424.69
2023-01-05T18:37:36.870Z,101434.72
2023-01-05T18:40:03.475Z,101429.38
2023-01-05T18:42:29.864Z,101437.03
2023-01-05T18:44:56.208Z,101445.47
2023-01-05T18:47:22.560Z,101442.94
2023-01-05T18:49:48.875Z,101452.78
2023-01-05T18:52:15.204Z,101444.53
2023-01-05T18:54:41.635Z,101450.75
2023-01-05T18:57:08.535Z,101453.50
2023-01-05T18:59:47.162Z,101454.00
2023-01-05T19:02:13.914Z,101454.97
2023-01-05T19:04:43.176Z,101459.88
2023-01-05T19:07:09.570Z,101460.44
2023-01-05T19:09:36.090Z,101472.16
2023-01-05T19:12:02.480Z,101472.69
2023-01-05T19:14:28.847Z,101473.44
2023-01-05T19:16:55.420Z,101469.19
2023-01-05T19:19:25.034Z,101473.75
2023-01-05T19:21:52.254Z,101473.31
2023-01-05T19:24:22.227Z,101476.66
2023-01-05T19:26:49.404Z,101466.84
2023-01-05T19:29:18.620Z,101471.63
2023-01-05T19:31:45.278Z,101476.97
2023-01-05T19:34:13.771Z,101490.34
2023-01-05T19:36:41.612Z,101494.09
2023-01-05T19:39:10.166Z,101492.88
2023-01-05T19:41:37.175Z,101490.03
2023-01-05T19:44:03.651Z,101501.31
2023-01-05T19:46:30.143Z,101501.84
2023-01-05T19:48:56.599Z,101491.97
2023-01-05T19:51:23.773Z,101504.84
2023-01-05T19:54:10.161Z,101507.91
2023-01-05T19:56:36.522Z,101505.50
2023-01-05T19:59:03.785Z,101513.16
2023-01-05T20:01:30.698Z,101523.97
2023-01-05T20:03:57.131Z,101529.03
2023-01-05T20:06:26.895Z,101536.31
2023-01-05T20:08:53.600Z,101537.91
2023-01-05T20:11:35.903Z,101547.28
2023-01-05T20:14:15.081Z,101543.88
2023-01-05T20:16:41.939Z,101543.88
2023-01-05T20:19:08.286Z,101546.88
2023-01-05T20:21:34.635Z,101547.63
2023-01-05T20:24:01.320Z,101548.88
2023-01-05T20:26:28.239Z,101545.25
2023-01-05T20:28:59.512Z,101557.44
2023-01-05T20:31:26.953Z,101558.16
2023-01-05T20:33:53.592Z,101563.19
2023-01-05T20:36:20.235Z,101568.94
2023-01-05T20:38:46.603Z,101572.69
2023-01-05T20:41:22.864Z,101572.03
2023-01-05T20:43:49.353Z,101568.28
2023-01-05T20:50:15.545Z,101575.19
2023-01-05T20:52:50.112Z,101573.72
2023-01-05T20:55:18.762Z,101577.97
2023-01-05T20:57:48.244Z,101582.25
2023-01-05T21:00:19.188Z,101586.59
2023-01-05T21:02:47.406Z,101586.47
2023-01-05T21:05:15.100Z,101585.00
2023-01-05T21:07:44.206Z,101583.47
2023-01-05T21:10:10.565Z,101595.66
2023-01-05T21:12:36.921Z,101597.75
2023-01-05T21:15:03.274Z,101599.16
2023-01-05T21:17:29.625Z,101596.28
2023-01-05T21:19:56.402Z,101599.78
2023-01-05T21:22:22.746Z,101594.78
2023-01-05T21:24:49.075Z,101599.78
2023-01-05T21:27:15.505Z,101619.28
2023-01-05T21:29:48.119Z,101610.66
2023-01-05T21:32:14.529Z,101609.28
2023-01-05T21:34:40.848Z,101610.78
2023-01-05T21:37:07.164Z,101618.03
2023-01-05T21:39:33.563Z,101623.03
2023-01-05T21:42:18.362Z,101609.28
2023-01-05T21:44:44.693Z,101614.28
2023-01-05T21:47:13.972Z,101605.78
2023-01-05T21:49:43.329Z,101604.91
2023-01-05T21:52:29.033Z,101609.91
2023-01-05T21:55:17.001Z,101597.56
2023-01-05T21:57:43.329Z,101601.78
2023-01-05T22:00:09.963Z,101603.19
2023-01-05T22:02:39.145Z,101600.31
2023-01-05T22:05:05.918Z,101599.56
2023-01-05T22:07:32.292Z,101610.31
2023-01-05T22:09:58.635Z,101603.06
2023-01-05T22:12:24.967Z,101605.78
2023-01-05T22:14:51.309Z,101606.56
2023-01-05T22:17:17.657Z,101602.06
2023-01-05T22:19:44.017Z,101617.06
2023-01-05T22:22:10.353Z,101618.56
2023-01-05T22:24:36.758Z,101627.09
2023-01-05T22:27:06.012Z,101627.09
2023-01-05T22:29:32.545Z,101639.84
2023-01-05T22:32:01.725Z,101637.94
2023-01-05T22:34:28.999Z,101640.31
2023-01-05T22:36:55.386Z,101635.84
2023-01-05T22:39:21.880Z,101643.69
2023-01-05T22:41:48.701Z,101637.81
2023-01-05T22:44:15.015Z,101637.81
2023-01-05T22:46:41.386Z,101634.09
2023-01-05T22:49:07.779Z,101631.84
2023-01-05T22:51:35.230Z,101633.22
2023-01-05T22:54:08.064Z,101631.00
2023-01-05T22:56:40.024Z,101635.00
2023-01-05T22:59:06.365Z,101630.88
2023-01-05T23:01:34.128Z,101643.75
2023-01-05T23:04:00.821Z,101640.13
2023-01-05T23:06:27.165Z,101632.13
2023-01-05T23:08:53.721Z,101637.88
2023-01-05T23:11:20.813Z,101643.63
2023-01-05T23:13:47.171Z,101647.88
2023-01-05T23:16:13.602Z,101644.16
2023-01-05T23:18:39.979Z,101649.16
2023-01-05T23:21:07.338Z,101655.53
2023-01-05T23:23:33.725Z,101657.66
2023-01-05T23:26:00.072Z,101654.66
2023-01-05T23:28:26.716Z,101647.41
2023-01-05T23:30:53.817Z,101650.28
2023-01-05T23:33:20.415Z,101654.53
2023-01-05T23:35:46.916Z,101643.66
2023-01-05T23:38:13.334Z,101643.66
2023-01-05T23:40:43.168Z,101641.44
2023-01-05T23:43:12.693Z,101639.91
2023-01-05T23:45:40.154Z,101634.16
2023-01-05T23:48:07.952Z,101634.16
2023-01-05T23:50:34.276Z,101619.03
2023-01-05T23:53:00.622Z,101621.16
2023-01-05T23:55:26.985Z,101611.28
2023-01-05T23:57:53.318Z,101613.53
